sensor_id;sensor_type;location;lat;lon;timestamp;temperature;humidity
76333;DHT22;71254;53.010;6.508;2024-03-02T00:00:23;7.60;99.90
76333;DHT22;71254;53.010;6.508;2024-03-02T00:02:50;7.60;99.90
76333;DHT22;71254;53.010;6.508;2024-03-02T00:05:20;7.70;99.90
76333;DHT22;71254;53.010;6.508;2024-03-02T00:07:53;7.60;99.90
76333;DHT22;71254;53.010;6.508;2024-03-02T00:10:30;7.60;99.90
76333;DHT22;71254;53.010;6.508;2024-03-02T00:13:00;7.60;99.90
76333;DHT22;71254;53.010;6.508;2024-03-02T00:17:55;7.60;99.90
76333;DHT22;71254;53.010;6.508;2024-03-02T00:20:22;7.60;99.90
76333;DHT22;71254;53.010;6.508;2024-03-02T00:22:49;7.30;99.90
76333;DHT22;71254;53.010;6.508;2024-03-02T00:25:15;7.60;99.90
76333;DHT22;71254;53.010;6.508;2024-03-02T00:27:41;7.70;99.90
76333;DHT22;71254;53.010;6.508;2024-03-02T00:33:11;7.70;99.90
76333;DHT22;71254;53.010;6.508;2024-03-02T00:35:36;8.70;99.90
76333;DHT22;71254;53.010;6.508;2024-03-02T00:38:06;7.80;99.90
76333;DHT22;71254;53.010;6.508;2024-03-02T00:40:32;7.80;99.90
76333;DHT22;71254;53.010;6.508;2024-03-02T00:42:58;7.80;99.90
76333;DHT22;71254;53.010;6.508;2024-03-02T00:45:25;7.80;99.90
76333;DHT22;71254;53.010;6.508;2024-03-02T00:47:53;7.80;99.90
76333;DHT22;71254;53.010;6.508;2024-03-02T00:50:19;7.80;99.90
76333;DHT22;71254;53.010;6.508;2024-03-02T00:52:45;7.80;99.90
76333;DHT22;71254;53.010;6.508;2024-03-02T00:55:14;7.80;99.90
76333;DHT22;71254;53.010;6.508;2024-03-02T00:57:39;7.80;99.90
76333;DHT22;71254;53.010;6.508;2024-03-02T01:00:06;7.80;99.90
76333;DHT22;71254;53.010;6.508;2024-03-02T01:02:35;7.80;99.90
76333;DHT22;71254;53.010;6.508;2024-03-02T01:05:01;7.80;99.90
76333;DHT22;71254;53.010;6.508;2024-03-02T01:07:26;7.80;99.90
76333;DHT22;71254;53.010;6.508;2024-03-02T01:09:52;7.80;99.90
76333;DHT22;71254;53.010;6.508;2024-03-02T01:12:18;7.90;99.90
76333;DHT22;71254;53.010;6.508;2024-03-02T01:14:43;8.40;99.90
76333;DHT22;71254;53.010;6.508;2024-03-02T01:17:09;7.70;99.90
76333;DHT22;71254;53.010;6.508;2024-03-02T01:19:35;7.80;99.90
76333;DHT22;71254;53.010;6.508;2024-03-02T01:22:04;7.80;99.90
76333;DHT22;71254;53.010;6.508;2024-03-02T01:24:30;7.90;99.90
76333;DHT22;71254;53.010;6.508;2024-03-02T01:26:56;8.90;99.90
76333;DHT22;71254;53.010;6.508;2024-03-02T01:29:22;7.90;99.90
76333;DHT22;71254;53.010;6.508;2024-03-02T01:31:47;7.90;99.90
76333;DHT22;71254;53.010;6.508;2024-03-02T01:34:13;7.90;99.90
76333;DHT22;71254;53.010;6.508;2024-03-02T01:36:38;7.90;99.90
76333;DHT22;71254;53.010;6.508;2024-03-02T01:39:04;7.90;99.90
76333;DHT22;71254;53.010;6.508;2024-03-02T01:41:34;7.90;99.90
76333;DHT22;71254;53.010;6.508;2024-03-02T01:43:59;7.90;99.90
76333;DHT22;71254;53.010;6.508;2024-03-02T01:46:28;7.80;99.90
76333;DHT22;71254;53.010;6.508;2024-03-02T01:48:54;7.80;99.90
76333;DHT22;71254;53.010;6.508;2024-03-02T01:51:19;7.80;99.90
76333;DHT22;71254;53.010;6.508;2024-03-02T01:53:45;7.80;99.90
76333;DHT22;71254;53.010;6.508;2024-03-02T01:56:10;7.80;99.90
76333;DHT22;71254;53.010;6.508;2024-03-02T01:58:36;7.80;99.90
76333;DHT22;71254;53.010;6.508;2024-03-02T02:01:02;7.80;99.90
76333;DHT22;71254;53.010;6.508;2024-03-02T02:03:28;7.80;99.90
76333;DHT22;71254;53.010;6.508;2024-03-02T02:05:53;7.80;99.90
76333;DHT22;71254;53.010;6.508;2024-03-02T02:08:19;7.70;99.90
76333;DHT22;71254;53.010;6.508;2024-03-02T02:10:45;7.70;99.90
76333;DHT22;71254;53.010;6.508;2024-03-02T02:13:10;9.20;99.90
76333;DHT22;71254;53.010;6.508;2024-03-02T02:15:36;7.70;99.90
76333;DHT22;71254;53.010;6.508;2024-03-02T02:18:02;7.80;99.90
76333;DHT22;71254;53.010;6.508;2024-03-02T02:20:29;7.70;99.90
76333;DHT22;71254;53.010;6.508;2024-03-02T02:22:56;7.60;99.90
76333;DHT22;71254;53.010;6.508;2024-03-02T02:25:21;7.60;99.90
76333;DHT22;71254;53.010;6.508;2024-03-02T02:27:47;7.60;99.90
76333;DHT22;71254;53.010;6.508;2024-03-02T02:30:12;7.60;99.90
76333;DHT22;71254;53.010;6.508;2024-03-02T02:32:38;7.60;99.90
76333;DHT22;71254;53.010;6.508;2024-03-02T02:35:04;7.60;99.90
76333;DHT22;71254;53.010;6.508;2024-03-02T02:37:30;7.60;99.90
76333;DHT22;71254;53.010;6.508;2024-03-02T02:39:56;7.70;99.90
76333;DHT22;71254;53.010;6.508;2024-03-02T02:42:22;7.70;99.90
76333;DHT22;71254;53.010;6.508;2024-03-02T02:44:47;7.70;99.90
76333;DHT22;71254;53.010;6.508;2024-03-02T02:47:13;7.70;99.90
76333;DHT22;71254;53.010;6.508;2024-03-02T02:49:38;7.70;99.90
76333;DHT22;71254;53.010;6.508;2024-03-02T02:52:04;7.70;99.90
76333;DHT22;71254;53.010;6.508;2024-03-02T02:54:29;7.70;99.90
76333;DHT22;71254;53.010;6.508;2024-03-02T02:56:55;7.80;99.90
76333;DHT22;71254;53.010;6.508;2024-03-02T02:59:20;7.80;99.90
76333;DHT22;71254;53.010;6.508;2024-03-02T03:01:46;7.80;99.90
76333;DHT22;71254;53.010;6.508;2024-03-02T03:04:11;7.80;99.90
76333;DHT22;71254;53.010;6.508;2024-03-02T03:06:37;7.80;99.90
76333;DHT22;71254;53.010;6.508;2024-03-02T03:09:03;7.80;99.90
76333;DHT22;71254;53.010;6.508;2024-03-02T03:11:29;8.00;99.90
76333;DHT22;71254;53.010;6.508;2024-03-02T03:13:54;8.50;99.90
76333;DHT22;71254;53.010;6.508;2024-03-02T03:16:20;7.90;99.90
76333;DHT22;71254;53.010;6.508;2024-03-02T03:18:46;7.80;99.90
76333;DHT22;71254;53.010;6.508;2024-03-02T03:21:12;7.90;99.90
76333;DHT22;71254;53.010;6.508;2024-03-02T03:23:37;7.80;99.90
76333;DHT22;71254;53.010;6.508;2024-03-02T03:26:03;7.80;99.90
76333;DHT22;71254;53.010;6.508;2024-03-02T03:28:29;7.80;99.90
76333;DHT22;71254;53.010;6.508;2024-03-02T03:30:55;7.80;99.90
76333;DHT22;71254;53.010;6.508;2024-03-02T03:33:20;7.80;99.90
76333;DHT22;71254;53.010;6.508;2024-03-02T03:35:46;7.90;99.90
76333;DHT22;71254;53.010;6.508;2024-03-02T03:38:12;7.90;99.90
76333;DHT22;71254;53.010;6.508;2024-03-02T03:40:37;7.90;99.90
76333;DHT22;71254;53.010;6.508;2024-03-02T03:43:04;7.90;99.90
76333;DHT22;71254;53.010;6.508;2024-03-02T03:45:29;7.90;99.90
76333;DHT22;71254;53.010;6.508;2024-03-02T03:47:55;7.90;99.90
76333;DHT22;71254;53.010;6.508;2024-03-02T03:50:21;7.90;99.90
76333;DHT22;71254;53.010;6.508;2024-03-02T03:52:47;7.90;99.90
76333;DHT22;71254;53.010;6.508;2024-03-02T03:55:12;7.90;99.90
76333;DHT22;71254;53.010;6.508;2024-03-02T03:57:38;7.90;99.90
76333;DHT22;71254;53.010;6.508;2024-03-02T04:00:04;7.90;99.90
76333;DHT22;71254;53.010;6.508;2024-03-02T04:02:29;7.90;99.90
76333;DHT22;71254;53.010;6.508;2024-03-02T04:04:55;7.90;99.90
76333;DHT22;71254;53.010;6.508;2024-03-02T04:07:20;7.90;99.90
76333;DHT22;71254;53.010;6.508;2024-03-02T04:09:46;7.90;99.90
76333;DHT22;71254;53.010;6.508;2024-03-02T04:12:11;7.90;99.90
76333;DHT22;71254;53.010;6.508;2024-03-02T04:14:38;7.90;99.90
76333;DHT22;71254;53.010;6.508;2024-03-02T04:17:04;7.90;99.90
76333;DHT22;71254;53.010;6.508;2024-03-02T04:19:29;7.90;99.90
76333;DHT22;71254;53.010;6.508;2024-03-02T04:21:55;7.90;99.90
76333;DHT22;71254;53.010;6.508;2024-03-02T04:24:20;7.90;99.90
76333;DHT22;71254;53.010;6.508;2024-03-02T04:26:46;7.90;99.90
76333;DHT22;71254;53.010;6.508;2024-03-02T04:29:12;7.90;99.90
76333;DHT22;71254;53.010;6.508;2024-03-02T04:31:37;7.80;99.90
76333;DHT22;71254;53.010;6.508;2024-03-02T04:34:03;7.90;99.90
76333;DHT22;71254;53.010;6.508;2024-03-02T04:36:28;7.80;99.90
76333;DHT22;71254;53.010;6.508;2024-03-02T04:38:55;7.80;99.90
76333;DHT22;71254;53.010;6.508;2024-03-02T04:41:20;7.80;99.90
76333;DHT22;71254;53.010;6.508;2024-03-02T04:43:46;7.80;99.90
76333;DHT22;71254;53.010;6.508;2024-03-02T04:46:11;7.80;99.90
76333;DHT22;71254;53.010;6.508;2024-03-02T04:48:37;7.80;99.90
76333;DHT22;71254;53.010;6.508;2024-03-02T04:51:03;6.70;99.90
76333;DHT22;71254;53.010;6.508;2024-03-02T04:53:28;7.70;99.90
76333;DHT22;71254;53.010;6.508;2024-03-02T04:55:54;7.70;99.90
76333;DHT22;71254;53.010;6.508;2024-03-02T04:58:19;7.70;99.90
76333;DHT22;71254;53.010;6.508;2024-03-02T05:00:48;7.70;99.90
76333;DHT22;71254;53.010;6.508;2024-03-02T05:03:13;8.20;99.90
76333;DHT22;71254;53.010;6.508;2024-03-02T05:05:39;8.20;99.90
76333;DHT22;71254;53.010;6.508;2024-03-02T05:08:05;7.60;99.90
76333;DHT22;71254;53.010;6.508;2024-03-02T05:10:31;7.60;99.90
76333;DHT22;71254;53.010;6.508;2024-03-02T05:12:57;7.50;99.90
76333;DHT22;71254;53.010;6.508;2024-03-02T05:15:24;7.50;99.90
76333;DHT22;71254;53.010;6.508;2024-03-02T05:17:50;7.40;99.90
76333;DHT22;71254;53.010;6.508;2024-03-02T05:20:16;7.40;99.90
76333;DHT22;71254;53.010;6.508;2024-03-02T05:22:42;7.30;99.90
76333;DHT22;71254;53.010;6.508;2024-03-02T05:25:08;7.30;99.90
76333;DHT22;71254;53.010;6.508;2024-03-02T05:27:37;7.30;99.90
76333;DHT22;71254;53.010;6.508;2024-03-02T05:30:03;7.30;99.90
76333;DHT22;71254;53.010;6.508;2024-03-02T05:32:31;7.30;99.90
76333;DHT22;71254;53.010;6.508;2024-03-02T05:34:57;7.40;99.90
76333;DHT22;71254;53.010;6.508;2024-03-02T05:37:23;7.40;99.90
76333;DHT22;71254;53.010;6.508;2024-03-02T05:39:48;7.40;99.90
76333;DHT22;71254;53.010;6.508;2024-03-02T05:42:14;7.40;99.90
76333;DHT22;71254;53.010;6.508;2024-03-02T05:44:40;7.40;99.90
76333;DHT22;71254;53.010;6.508;2024-03-02T05:47:05;7.50;99.90
76333;DHT22;71254;53.010;6.508;2024-03-02T05:49:34;7.50;99.90
76333;DHT22;71254;53.010;6.508;2024-03-02T05:52:00;7.50;99.90
76333;DHT22;71254;53.010;6.508;2024-03-02T05:54:25;7.50;99.90
76333;DHT22;71254;53.010;6.508;2024-03-02T05:56:51;7.50;99.90
76333;DHT22;71254;53.010;6.508;2024-03-02T05:59:16;7.50;99.90
76333;DHT22;71254;53.010;6.508;2024-03-02T06:01:43;7.50;99.90
76333;DHT22;71254;53.010;6.508;2024-03-02T06:04:13;7.50;99.90
76333;DHT22;71254;53.010;6.508;2024-03-02T06:06:41;7.50;99.90
76333;DHT22;71254;53.010;6.508;2024-03-02T06:09:08;7.50;99.90
76333;DHT22;71254;53.010;6.508;2024-03-02T06:11:34;7.30;99.90
76333;DHT22;71254;53.010;6.508;2024-03-02T06:14:01;7.50;99.90
76333;DHT22;71254;53.010;6.508;2024-03-02T06:16:26;7.90;99.90
76333;DHT22;71254;53.010;6.508;2024-03-02T06:18:52;7.40;99.90
76333;DHT22;71254;53.010;6.508;2024-03-02T06:21:19;7.40;99.90
76333;DHT22;71254;53.010;6.508;2024-03-02T06:23:48;7.30;99.90
76333;DHT22;71254;53.010;6.508;2024-03-02T06:26:13;7.60;99.90
76333;DHT22;71254;53.010;6.508;2024-03-02T06:28:39;7.20;99.90
76333;DHT22;71254;53.010;6.508;2024-03-02T06:31:04;7.10;99.90
76333;DHT22;71254;53.010;6.508;2024-03-02T06:33:30;7.10;99.90
76333;DHT22;71254;53.010;6.508;2024-03-02T06:35:56;7.50;99.90
76333;DHT22;71254;53.010;6.508;2024-03-02T06:38:21;7.00;99.90
76333;DHT22;71254;53.010;6.508;2024-03-02T06:40:47;6.90;99.90
76333;DHT22;71254;53.010;6.508;2024-03-02T06:43:12;6.90;99.90
76333;DHT22;71254;53.010;6.508;2024-03-02T06:45:38;6.80;99.90
76333;DHT22;71254;53.010;6.508;2024-03-02T06:48:04;6.80;99.90
76333;DHT22;71254;53.010;6.508;2024-03-02T06:50:30;6.80;99.90
76333;DHT22;71254;53.010;6.508;2024-03-02T06:52:55;6.70;99.90
76333;DHT22;71254;53.010;6.508;2024-03-02T06:55:21;6.60;99.90
76333;DHT22;71254;53.010;6.508;2024-03-02T06:57:47;6.60;99.90
76333;DHT22;71254;53.010;6.508;2024-03-02T07:00:13;6.60;99.90
76333;DHT22;71254;53.010;6.508;2024-03-02T07:02:39;6.60;99.90
76333;DHT22;71254;53.010;6.508;2024-03-02T07:05:07;6.60;99.90
76333;DHT22;71254;53.010;6.508;2024-03-02T07:07:34;6.50;99.90
76333;DHT22;71254;53.010;6.508;2024-03-02T07:10:00;6.50;99.90
76333;DHT22;71254;53.010;6.508;2024-03-02T07:12:26;6.50;99.90
76333;DHT22;71254;53.010;6.508;2024-03-02T07:14:52;6.60;99.90
76333;DHT22;71254;53.010;6.508;2024-03-02T07:17:31;6.60;99.90
76333;DHT22;71254;53.010;6.508;2024-03-02T07:19:57;6.70;99.90
76333;DHT22;71254;53.010;6.508;2024-03-02T07:22:23;6.80;99.90
76333;DHT22;71254;53.010;6.508;2024-03-02T07:24:49;6.90;99.90
76333;DHT22;71254;53.010;6.508;2024-03-02T07:27:15;7.10;99.90
76333;DHT22;71254;53.010;6.508;2024-03-02T07:29:41;7.10;99.90
76333;DHT22;71254;53.010;6.508;2024-03-02T07:32:08;7.20;99.90
76333;DHT22;71254;53.010;6.508;2024-03-02T07:34:34;7.30;99.90
76333;DHT22;71254;53.010;6.508;2024-03-02T07:37:00;7.30;99.90
76333;DHT22;71254;53.010;6.508;2024-03-02T07:39:26;7.60;99.90
76333;DHT22;71254;53.010;6.508;2024-03-02T07:41:52;8.20;99.90
76333;DHT22;71254;53.010;6.508;2024-03-02T07:44:17;8.90;99.90
76333;DHT22;71254;53.010;6.508;2024-03-02T07:46:45;9.60;99.90
76333;DHT22;71254;53.010;6.508;2024-03-02T07:49:12;10.40;99.90
76333;DHT22;71254;53.010;6.508;2024-03-02T07:51:39;11.00;99.90
76333;DHT22;71254;53.010;6.508;2024-03-02T07:54:05;11.40;99.90
76333;DHT22;71254;53.010;6.508;2024-03-02T07:56:30;11.70;99.90
76333;DHT22;71254;53.010;6.508;2024-03-02T07:58:56;12.10;99.90
76333;DHT22;71254;53.010;6.508;2024-03-02T08:01:27;12.50;99.90
76333;DHT22;71254;53.010;6.508;2024-03-02T08:03:53;12.90;99.90
76333;DHT22;71254;53.010;6.508;2024-03-02T08:06:18;13.10;99.90
76333;DHT22;71254;53.010;6.508;2024-03-02T08:08:47;13.00;99.90
76333;DHT22;71254;53.010;6.508;2024-03-02T08:11:12;12.70;99.90
76333;DHT22;71254;53.010;6.508;2024-03-02T08:13:38;12.40;99.90
76333;DHT22;71254;53.010;6.508;2024-03-02T08:16:04;12.10;99.90
76333;DHT22;71254;53.010;6.508;2024-03-02T08:18:32;12.40;99.90
76333;DHT22;71254;53.010;6.508;2024-03-02T08:20:58;13.00;99.90
76333;DHT22;71254;53.010;6.508;2024-03-02T08:23:23;13.40;99.90
76333;DHT22;71254;53.010;6.508;2024-03-02T08:25:49;13.40;99.90
76333;DHT22;71254;53.010;6.508;2024-03-02T08:28:15;12.90;99.90
76333;DHT22;71254;53.010;6.508;2024-03-02T08:30:40;12.70;99.90
76333;DHT22;71254;53.010;6.508;2024-03-02T08:33:06;12.00;99.90
76333;DHT22;71254;53.010;6.508;2024-03-02T08:35:31;11.60;99.90
76333;DHT22;71254;53.010;6.508;2024-03-02T08:38:02;11.30;99.90
76333;DHT22;71254;53.010;6.508;2024-03-02T08:40:28;11.00;99.90
76333;DHT22;71254;53.010;6.508;2024-03-02T08:42:54;10.90;99.90
76333;DHT22;71254;53.010;6.508;2024-03-02T08:45:19;12.10;99.90
76333;DHT22;71254;53.010;6.508;2024-03-02T08:47:46;11.60;99.90
76333;DHT22;71254;53.010;6.508;2024-03-02T08:50:12;11.80;99.90
76333;DHT22;71254;53.010;6.508;2024-03-02T08:52:37;11.80;99.90
76333;DHT22;71254;53.010;6.508;2024-03-02T08:55:03;11.00;99.90
76333;DHT22;71254;53.010;6.508;2024-03-02T08:57:30;10.10;99.90
76333;DHT22;71254;53.010;6.508;2024-03-02T08:59:55;9.30;99.90
76333;DHT22;71254;53.010;6.508;2024-03-02T09:02:21;10.80;99.90
76333;DHT22;71254;53.010;6.508;2024-03-02T09:04:47;10.00;99.90
76333;DHT22;71254;53.010;6.508;2024-03-02T09:07:14;9.90;99.90
76333;DHT22;71254;53.010;6.508;2024-03-02T09:09:39;9.90;99.90
76333;DHT22;71254;53.010;6.508;2024-03-02T09:12:06;11.10;99.90
76333;DHT22;71254;53.010;6.508;2024-03-02T09:14:32;10.10;99.90
76333;DHT22;71254;53.010;6.508;2024-03-02T09:16:58;10.10;99.90
76333;DHT22;71254;53.010;6.508;2024-03-02T09:19:23;10.00;99.90
76333;DHT22;71254;53.010;6.508;2024-03-02T09:21:49;10.00;99.90
76333;DHT22;71254;53.010;6.508;2024-03-02T09:24:15;10.00;99.90
76333;DHT22;71254;53.010;6.508;2024-03-02T09:26:41;9.90;99.90
76333;DHT22;71254;53.010;6.508;2024-03-02T09:29:06;9.90;99.90
76333;DHT22;71254;53.010;6.508;2024-03-02T09:31:32;9.90;99.90
76333;DHT22;71254;53.010;6.508;2024-03-02T09:33:58;9.90;99.90
76333;DHT22;71254;53.010;6.508;2024-03-02T09:36:23;10.00;99.90
76333;DHT22;71254;53.010;6.508;2024-03-02T09:38:49;10.10;99.90
76333;DHT22;71254;53.010;6.508;2024-03-02T09:41:15;10.10;99.90
76333;DHT22;71254;53.010;6.508;2024-03-02T09:43:41;10.20;99.90
76333;DHT22;71254;53.010;6.508;2024-03-02T09:46:10;10.20;99.90
76333;DHT22;71254;53.010;6.508;2024-03-02T09:48:36;10.20;99.90
76333;DHT22;71254;53.010;6.508;2024-03-02T09:51:01;10.20;99.90
76333;DHT22;71254;53.010;6.508;2024-03-02T09:53:33;10.20;99.90
76333;DHT22;71254;53.010;6.508;2024-03-02T09:55:59;10.80;99.90
76333;DHT22;71254;53.010;6.508;2024-03-02T09:58:26;10.40;99.90
76333;DHT22;71254;53.010;6.508;2024-03-02T10:00:51;10.40;99.90
76333;DHT22;71254;53.010;6.508;2024-03-02T10:03:18;10.40;99.90
76333;DHT22;71254;53.010;6.508;2024-03-02T10:05:44;10.50;99.90
76333;DHT22;71254;53.010;6.508;2024-03-02T10:08:10;10.50;99.90
76333;DHT22;71254;53.010;6.508;2024-03-02T10:10:40;10.50;99.90
76333;DHT22;71254;53.010;6.508;2024-03-02T10:13:07;10.60;99.90
76333;DHT22;71254;53.010;6.508;2024-03-02T10:15:33;10.60;99.90
76333;DHT22;71254;53.010;6.508;2024-03-02T10:17:59;10.80;99.90
76333;DHT22;71254;53.010;6.508;2024-03-02T10:20:25;10.90;99.90
76333;DHT22;71254;53.010;6.508;2024-03-02T10:22:51;10.90;99.90
76333;DHT22;71254;53.010;6.508;2024-03-02T10:25:31;11.10;99.90
76333;DHT22;71254;53.010;6.508;2024-03-02T10:27:59;11.10;99.90
76333;DHT22;71254;53.010;6.508;2024-03-02T10:30:26;11.10;99.90
76333;DHT22;71254;53.010;6.508;2024-03-02T10:32:53;12.20;99.90
76333;DHT22;71254;53.010;6.508;2024-03-02T10:35:20;11.60;99.90
76333;DHT22;71254;53.010;6.508;2024-03-02T10:37:48;11.20;99.90
76333;DHT22;71254;53.010;6.508;2024-03-02T10:40:14;11.20;99.90
76333;DHT22;71254;53.010;6.508;2024-03-02T10:42:41;11.20;99.90
76333;DHT22;71254;53.010;6.508;2024-03-02T10:45:09;12.60;99.90
76333;DHT22;71254;53.010;6.508;2024-03-02T10:47:36;11.20;99.90
76333;DHT22;71254;53.010;6.508;2024-03-02T10:50:04;11.20;99.90
76333;DHT22;71254;53.010;6.508;2024-03-02T10:52:37;11.20;99.90
76333;DHT22;71254;53.010;6.508;2024-03-02T10:55:03;11.10;99.90
76333;DHT22;71254;53.010;6.508;2024-03-02T10:57:50;11.10;99.90
76333;DHT22;71254;53.010;6.508;2024-03-02T11:00:16;11.10;99.90
76333;DHT22;71254;53.010;6.508;2024-03-02T11:02:57;11.10;99.90
76333;DHT22;71254;53.010;6.508;2024-03-02T11:05:27;11.00;99.90
76333;DHT22;71254;53.010;6.508;2024-03-02T11:08:00;11.00;99.90
76333;DHT22;71254;53.010;6.508;2024-03-02T11:11:12;11.10;99.90
76333;DHT22;71254;53.010;6.508;2024-03-02T11:13:22;11.00;99.90
76333;DHT22;71254;53.010;6.508;2024-03-02T11:15:53;11.10;99.90
76333;DHT22;71254;53.010;6.508;2024-03-02T11:18:21;11.20;99.90
76333;DHT22;71254;53.010;6.508;2024-03-02T11:20:47;11.20;99.90
76333;DHT22;71254;53.010;6.508;2024-03-02T11:23:12;11.20;99.90
76333;DHT22;71254;53.010;6.508;2024-03-02T11:25:39;11.20;99.90
76333;DHT22;71254;53.010;6.508;2024-03-02T11:28:06;11.30;99.90
76333;DHT22;71254;53.010;6.508;2024-03-02T11:33:08;11.40;99.90
76333;DHT22;71254;53.010;6.508;2024-03-02T11:35:44;11.40;99.90
76333;DHT22;71254;53.010;6.508;2024-03-02T11:38:13;11.30;99.90
76333;DHT22;71254;53.010;6.508;2024-03-02T11:40:42;11.30;99.90
76333;DHT22;71254;53.010;6.508;2024-03-02T11:43:11;11.20;99.90
76333;DHT22;71254;53.010;6.508;2024-03-02T11:45:37;11.20;99.90
76333;DHT22;71254;53.010;6.508;2024-03-02T11:48:09;11.20;99.90
76333;DHT22;71254;53.010;6.508;2024-03-02T11:50:51;12.40;99.90
76333;DHT22;71254;53.010;6.508;2024-03-02T11:53:17;11.90;99.90
76333;DHT22;71254;53.010;6.508;2024-03-02T11:55:44;11.20;99.90
76333;DHT22;71254;53.010;6.508;2024-03-02T11:58:14;11.20;99.90
76333;DHT22;71254;53.010;6.508;2024-03-02T12:00:40;11.20;99.90
76333;DHT22;71254;53.010;6.508;2024-03-02T12:03:07;11.20;99.90
76333;DHT22;71254;53.010;6.508;2024-03-02T12:05:34;11.80;99.90
76333;DHT22;71254;53.010;6.508;2024-03-02T12:08:02;11.20;99.90
76333;DHT22;71254;53.010;6.508;2024-03-02T12:10:28;11.20;99.90
76333;DHT22;71254;53.010;6.508;2024-03-02T12:13:06;11.30;99.90
76333;DHT22;71254;53.010;6.508;2024-03-02T12:15:34;11.40;99.90
76333;DHT22;71254;53.010;6.508;2024-03-02T12:18:02;11.50;99.90
76333;DHT22;71254;53.010;6.508;2024-03-02T12:20:29;11.60;99.90
76333;DHT22;71254;53.010;6.508;2024-03-02T12:22:59;11.60;99.90
76333;DHT22;71254;53.010;6.508;2024-03-02T12:25:25;11.60;99.90
76333;DHT22;71254;53.010;6.508;2024-03-02T12:27:56;11.50;91.70
76333;DHT22;71254;53.010;6.508;2024-03-02T12:30:23;11.60;99.90
76333;DHT22;71254;53.010;6.508;2024-03-02T12:32:49;11.60;99.90
76333;DHT22;71254;53.010;6.508;2024-03-02T12:35:15;11.60;99.90
76333;DHT22;71254;53.010;6.508;2024-03-02T12:37:48;11.70;99.90
76333;DHT22;71254;53.010;6.508;2024-03-02T12:40:17;10.90;96.40
76333;DHT22;71254;53.010;6.508;2024-03-02T12:42:44;11.60;95.90
76333;DHT22;71254;53.010;6.508;2024-03-02T12:45:11;11.60;99.30
76333;DHT22;71254;53.010;6.508;2024-03-02T12:47:37;11.50;98.90
76333;DHT22;71254;53.010;6.508;2024-03-02T12:50:09;11.50;99.60
76333;DHT22;71254;53.010;6.508;2024-03-02T12:52:35;12.60;93.80
76333;DHT22;71254;53.010;6.508;2024-03-02T12:55:03;11.60;97.90
76333;DHT22;71254;53.010;6.508;2024-03-02T12:57:31;11.60;98.20
76333;DHT22;71254;53.010;6.508;2024-03-02T13:00:04;11.70;98.60
76333;DHT22;71254;53.010;6.508;2024-03-02T13:02:35;11.70;93.00
76333;DHT22;71254;53.010;6.508;2024-03-02T13:05:06;11.70;97.80
76333;DHT22;71254;53.010;6.508;2024-03-02T13:07:32;11.70;98.10
76333;DHT22;71254;53.010;6.508;2024-03-02T13:09:59;11.70;99.10
76333;DHT22;71254;53.010;6.508;2024-03-02T13:12:25;12.10;99.50
76333;DHT22;71254;53.010;6.508;2024-03-02T13:14:54;11.70;99.90
76333;DHT22;71254;53.010;6.508;2024-03-02T13:17:20;11.80;99.50
76333;DHT22;71254;53.010;6.508;2024-03-02T13:19:56;11.90;98.70
76333;DHT22;71254;53.010;6.508;2024-03-02T13:22:22;13.20;95.50
76333;DHT22;71254;53.010;6.508;2024-03-02T13:24:52;13.10;98.70
76333;DHT22;71254;53.010;6.508;2024-03-02T13:27:19;12.10;98.00
76333;DHT22;71254;53.010;6.508;2024-03-02T13:29:46;12.10;97.90
76333;DHT22;71254;53.010;6.508;2024-03-02T13:32:13;12.20;97.20
76333;DHT22;71254;53.010;6.508;2024-03-02T13:34:39;12.30;97.20
76333;DHT22;71254;53.010;6.508;2024-03-02T13:37:05;12.40;96.20
76333;DHT22;71254;53.010;6.508;2024-03-02T13:39:31;12.40;95.50
76333;DHT22;71254;53.010;6.508;2024-03-02T13:42:00;12.50;96.20
76333;DHT22;71254;53.010;6.508;2024-03-02T13:44:30;12.60;94.90
76333;DHT22;71254;53.010;6.508;2024-03-02T13:46:56;12.70;94.30
76333;DHT22;71254;53.010;6.508;2024-03-02T13:49:21;12.70;94.50
76333;DHT22;71254;53.010;6.508;2024-03-02T13:51:48;12.80;94.30
76333;DHT22;71254;53.010;6.508;2024-03-02T13:54:14;12.80;94.50
76333;DHT22;71254;53.010;6.508;2024-03-02T13:56:40;13.20;94.30
76333;DHT22;71254;53.010;6.508;2024-03-02T13:59:07;12.90;93.90
76333;DHT22;71254;53.010;6.508;2024-03-02T14:01:32;12.90;93.20
76333;DHT22;71254;53.010;6.508;2024-03-02T14:03:58;12.90;92.40
76333;DHT22;71254;53.010;6.508;2024-03-02T14:06:26;13.00;92.60
76333;DHT22;71254;53.010;6.508;2024-03-02T14:08:52;13.00;91.80
76333;DHT22;71254;53.010;6.508;2024-03-02T14:11:18;13.00;90.50
76333;DHT22;71254;53.010;6.508;2024-03-02T14:13:45;13.00;92.00
76333;DHT22;71254;53.010;6.508;2024-03-02T14:16:15;13.00;91.80
76333;DHT22;71254;53.010;6.508;2024-03-02T14:18:41;13.10;90.40
76333;DHT22;71254;53.010;6.508;2024-03-02T14:21:08;13.30;89.20
76333;DHT22;71254;53.010;6.508;2024-03-02T14:23:33;13.10;91.30
76333;DHT22;71254;53.010;6.508;2024-03-02T14:25:59;13.10;92.00
76333;DHT22;71254;53.010;6.508;2024-03-02T14:28:25;13.10;91.90
76333;DHT22;71254;53.010;6.508;2024-03-02T14:30:50;13.30;90.10
76333;DHT22;71254;53.010;6.508;2024-03-02T14:33:16;13.30;86.80
76333;DHT22;71254;53.010;6.508;2024-03-02T14:35:42;13.40;86.40
76333;DHT22;71254;53.010;6.508;2024-03-02T14:38:08;13.40;88.40
76333;DHT22;71254;53.010;6.508;2024-03-02T14:40:33;13.50;86.60
76333;DHT22;71254;53.010;6.508;2024-03-02T14:42:59;13.50;86.60
76333;DHT22;71254;53.010;6.508;2024-03-02T14:45:24;13.50;86.00
76333;DHT22;71254;53.010;6.508;2024-03-02T14:47:51;13.50;87.90
76333;DHT22;71254;53.010;6.508;2024-03-02T14:50:17;13.60;87.10
76333;DHT22;71254;53.010;6.508;2024-03-02T14:52:44;13.50;84.60
76333;DHT22;71254;53.010;6.508;2024-03-02T14:55:11;13.50;83.30
76333;DHT22;71254;53.010;6.508;2024-03-02T14:57:36;13.80;84.90
76333;DHT22;71254;53.010;6.508;2024-03-02T15:00:02;13.40;85.30
76333;DHT22;71254;53.010;6.508;2024-03-02T15:02:29;13.50;86.60
76333;DHT22;71254;53.010;6.508;2024-03-02T15:04:55;13.40;86.10
76333;DHT22;71254;53.010;6.508;2024-03-02T15:07:20;13.40;86.70
76333;DHT22;71254;53.010;6.508;2024-03-02T15:09:46;13.50;88.10
76333;DHT22;71254;53.010;6.508;2024-03-02T15:12:11;13.40;86.80
76333;DHT22;71254;53.010;6.508;2024-03-02T15:14:40;13.30;87.30
76333;DHT22;71254;53.010;6.508;2024-03-02T15:17:14;13.20;88.50
76333;DHT22;71254;53.010;6.508;2024-03-02T15:19:44;13.20;85.60
76333;DHT22;71254;53.010;6.508;2024-03-02T15:22:10;13.20;87.50
76333;DHT22;71254;53.010;6.508;2024-03-02T15:24:36;13.20;89.90
76333;DHT22;71254;53.010;6.508;2024-03-02T15:27:02;13.20;90.70
76333;DHT22;71254;53.010;6.508;2024-03-02T15:29:32;13.20;90.00
76333;DHT22;71254;53.010;6.508;2024-03-02T15:31:58;13.30;89.70
76333;DHT22;71254;53.010;6.508;2024-03-02T15:34:24;13.20;90.00
76333;DHT22;71254;53.010;6.508;2024-03-02T15:36:50;13.20;90.40
76333;DHT22;71254;53.010;6.508;2024-03-02T15:39:16;13.10;90.60
76333;DHT22;71254;53.010;6.508;2024-03-02T15:41:44;13.30;91.50